.
WxDataArchive / Data Records for 2014-02-15
2014-02-14 February 2014 2014-02-16

Data Records for Saturday, 15 February 2014

Time	Temp	Chill	HIndex	Humid	Dewpt	 Wind 	HiWind	WindDir	Rain 	Barom 
-----	----	-----	------	-----	-----	------	------	-------	-----	----- 
00:00	19.9	19.9	19.9	77	13.9	1	5	270	0.00	29.853 
00:05	19.9	19.9	19.9	77	13.9	1	4	270	0.00	29.853 
00:10	19.7	19.7	19.7	77	13.7	1	2	270	0.00	29.853 
00:15	19.5	19.5	19.5	77	13.5	0	3	270	0.00	29.852 
00:20	19.4	19.4	19.4	77	13.4	1	4	270	0.00	29.852 
00:25	19.4	19.4	19.4	77	13.4	1	3	270	0.00	29.852 
00:30	19.2	19.2	19.2	77	13.2	0	2	270	0.00	29.853 
00:35	19.1	19.1	19.1	78	13.4	0	2	270	0.00	29.853 
00:40	18.9	18.9	18.9	78	13.2	0	2	270	0.00	29.853 
00:45	18.9	18.9	18.9	78	13.2	0	4	292	0.00	29.855 
00:50	18.6	18.6	18.6	78	12.9	0	1	292	0.00	29.855 
00:55	18.4	18.4	18.4	78	12.7	0	1	292	0.00	29.855 
01:00	18.3	18.3	18.3	79	12.9	0	1	292	0.00	29.859 
01:05	18.0	18.0	18.0	79	12.6	0	1	292	0.00	29.859 
01:10	17.8	17.8	17.8	79	12.4	0	1	292	0.00	29.859 
01:15	17.7	17.7	17.7	80	12.6	0	1	292	0.00	29.865 
01:20	17.5	17.5	17.5	80	12.4	0	1	292	0.00	29.865 
01:25	17.3	17.3	17.3	81	12.5	0	1	292	0.00	29.865 
01:30	17.2	17.2	17.2	81	12.4	0	0	---	0.00	29.867 
01:35	17.0	17.0	17.0	81	12.2	0	1	292	0.00	29.867 
01:40	17.0	17.0	17.0	81	12.2	0	2	292	0.00	29.867 
01:45	16.9	16.9	16.9	82	12.4	0	2	292	0.00	29.869 
01:50	16.9	16.9	16.9	82	12.4	0	1	292	0.00	29.869 
01:55	16.7	16.7	16.7	82	12.2	0	2	292	0.00	29.869 
02:00	16.5	16.5	16.5	82	12.0	0	2	292	0.00	29.874 
02:05	16.5	16.5	16.5	83	12.3	0	3	292	0.00	29.874 
02:10	16.4	16.4	16.4	83	12.2	0	2	292	0.00	29.874 
02:15	16.2	16.2	16.2	83	12.0	0	2	292	0.00	29.877 
02:20	16.2	16.2	16.2	84	12.2	0	2	292	0.00	29.877 
02:25	16.1	16.1	16.1	84	12.1	0	1	292	0.00	29.877 
02:30	16.1	16.1	16.1	84	12.1	0	2	292	0.00	29.876 
02:35	16.1	16.1	16.1	84	12.1	1	4	292	0.00	29.876 
02:40	16.1	16.1	16.1	84	12.1	1	3	292	0.00	29.876 
02:45	15.9	15.9	15.9	83	11.7	0	3	292	0.00	29.887 
02:50	15.7	15.7	15.7	83	11.5	0	2	292	0.00	29.887 
02:55	15.6	15.6	15.6	83	11.4	0	1	292	0.00	29.887 
03:00	15.4	15.4	15.4	83	11.2	0	1	292	0.00	29.893 
03:05	15.4	15.4	15.4	83	11.2	0	1	292	0.00	29.893 
03:10	15.2	15.2	15.2	83	11.0	0	2	292	0.00	29.893 
03:15	15.2	15.2	15.2	83	11.0	0	2	292	0.00	29.903 
03:20	15.1	15.1	15.1	83	10.9	0	1	292	0.00	29.903 
03:25	14.9	14.9	14.9	83	10.7	0	1	292	0.00	29.903 
03:30	14.8	14.8	14.8	83	10.6	0	0	---	0.00	29.905 
03:35	14.4	14.4	14.4	83	10.2	0	1	292	0.00	29.905 
03:40	14.3	14.3	14.3	83	10.1	0	0	---	0.00	29.905 
03:45	14.0	14.0	14.0	83	9.8	0	0	---	0.00	29.912 
03:50	13.8	13.8	13.8	83	9.6	0	0	---	0.00	29.912 
03:55	13.6	13.6	13.6	83	9.4	0	0	---	0.00	29.912 
04:00	13.5	13.5	13.5	83	9.3	0	0	---	0.00	29.924 
04:05	13.3	13.3	13.3	83	9.1	0	1	292	0.00	29.924 
04:10	12.9	12.9	12.9	83	8.7	0	0	---	0.00	29.924 
04:15	12.9	12.9	12.9	84	9.0	0	0	---	0.00	29.935 
04:20	12.8	12.8	12.8	84	8.9	0	0	---	0.00	29.935 
04:25	12.6	12.6	12.6	84	8.7	0	0	---	0.00	29.935 
04:30	12.6	12.6	12.6	84	8.7	0	0	---	0.00	29.940 
04:35	12.4	12.4	12.4	84	8.5	0	0	---	0.00	29.940 
04:40	12.4	12.4	12.4	84	8.5	0	0	---	0.00	29.940 
04:45	12.3	12.3	12.3	84	8.4	0	1	292	0.00	29.958 
04:50	12.4	12.4	12.4	84	8.5	0	1	292	0.00	29.958 
04:55	12.3	12.3	12.3	84	8.4	0	1	292	0.00	29.958 
05:00	12.3	12.3	12.3	84	8.4	0	1	292	0.00	29.972 
05:05	12.3	12.3	12.3	84	8.4	0	1	292	0.00	29.972 
05:10	12.1	12.1	12.1	84	8.2	0	1	292	0.00	29.972 
05:15	11.9	11.9	11.9	84	8.0	0	0	---	0.00	29.977 
05:20	11.7	11.7	11.7	84	7.8	0	1	292	0.00	29.977 
05:25	11.6	11.6	11.6	84	7.7	0	1	292	0.00	29.977 
05:30	11.6	11.6	11.6	84	7.7	0	0	---	0.00	29.988 
05:35	11.7	11.7	11.7	85	8.1	0	1	292	0.00	29.988 
05:40	11.9	11.9	11.9	85	8.3	0	2	292	0.00	29.988 
05:45	12.3	12.3	12.3	85	8.7	0	1	292	0.00	29.996 
05:50	12.4	12.4	12.4	85	8.8	0	1	292	0.00	29.996 
05:55	12.6	12.6	12.6	85	9.0	0	2	292	0.00	29.996 
06:00	12.8	12.8	12.8	85	9.2	0	2	292	0.00	30.004 
06:05	12.9	12.9	12.9	85	9.3	0	1	292	0.00	30.004 
06:10	13.1	13.1	13.1	85	9.5	0	1	292	0.00	30.004 
06:15	13.3	13.3	13.3	85	9.7	0	1	292	0.00	30.012 
06:20	13.5	13.5	13.5	85	9.8	0	1	292	0.00	30.012 
06:25	13.6	13.6	13.6	85	9.9	0	1	292	0.00	30.012 
06:30	13.6	13.6	13.6	84	9.7	0	1	292	0.00	30.017 
06:35	13.8	13.8	13.8	84	9.9	0	1	292	0.00	30.017 
06:40	13.8	13.8	13.8	84	9.9	0	2	292	0.00	30.017 
06:45	14.0	14.0	14.0	84	10.1	0	1	292	0.00	30.019 
06:50	14.0	14.0	14.0	84	10.1	0	1	292	0.00	30.019 
06:55	14.0	14.0	14.0	84	10.1	0	1	292	0.00	30.019 
07:00	14.0	14.0	14.0	83	9.8	0	1	292	0.00	30.020 
07:05	14.0	14.0	14.0	83	9.8	0	1	292	0.00	30.020 
07:10	14.0	14.0	14.0	83	9.8	0	1	292	0.00	30.020 
07:15	14.0	14.0	14.0	82	9.5	0	1	292	0.00	30.032 
07:20	14.0	14.0	14.0	82	9.5	0	1	292	0.00	30.032 
07:25	13.8	13.8	13.8	82	9.3	0	0	---	0.00	30.032 
07:30	13.8	13.8	13.8	82	9.3	0	1	292	0.00	30.039 
07:35	13.8	13.8	13.8	81	9.1	0	1	292	0.00	30.039 
07:40	14.0	14.0	14.0	81	9.3	0	1	292	0.00	30.039 
07:45	14.0	14.0	14.0	81	9.3	0	1	292	0.00	30.051 
07:50	14.1	14.1	14.1	81	9.4	0	1	292	0.00	30.051 
07:55	14.1	14.1	14.1	81	9.4	0	0	---	0.00	30.051 
08:00	14.3	14.3	14.3	81	9.6	0	1	292	0.00	30.055 
08:05	14.3	14.3	14.3	81	9.6	0	1	292	0.00	30.055 
08:10	14.4	14.4	14.4	81	9.7	0	1	292	0.00	30.055 
08:15	14.4	14.4	14.4	81	9.7	0	1	292	0.00	30.066 
08:20	14.6	14.6	14.6	80	9.6	0	1	292	0.00	30.066 
08:25	14.8	14.8	14.8	80	9.8	0	0	---	0.00	30.066 
08:30	14.9	14.9	14.9	80	9.9	0	1	292	0.00	30.067 
08:35	15.1	15.1	15.1	79	9.8	0	1	292	0.00	30.067 
08:40	15.1	15.1	15.1	79	9.8	0	1	292	0.00	30.067 
08:45	15.2	15.2	15.2	78	9.6	0	1	292	0.00	30.067 
08:50	15.6	15.6	15.6	77	9.7	0	1	292	0.00	30.067 
08:55	15.7	15.7	15.7	76	9.5	1	3	292	0.00	30.067 
09:00	15.9	15.9	15.9	75	9.4	1	3	292	0.00	30.068 
09:05	16.2	16.2	16.2	74	9.4	1	4	315	0.00	30.068 
09:10	16.4	16.4	16.4	73	9.3	0	3	315	0.00	30.068 
09:15	16.5	16.5	16.5	72	9.1	1	4	315	0.00	30.068 
09:20	16.7	16.7	16.7	71	9.0	0	2	315	0.00	30.068 
09:25	16.9	16.9	16.9	70	8.8	1	2	315	0.00	30.068 
09:30	17.0	17.0	17.0	69	8.6	1	3	315	0.00	30.073 
09:35	17.2	17.2	17.2	69	8.8	1	3	315	0.00	30.073 
09:40	17.5	17.5	17.5	68	8.8	1	4	315	0.00	30.073 
09:45	17.7	17.7	17.7	68	9.0	1	4	315	0.00	30.070 
09:50	17.8	17.8	17.8	67	8.7	1	2	315	0.00	30.070 
09:55	18.0	18.0	18.0	67	8.9	1	2	315	0.00	30.070 
10:00	18.4	18.4	18.4	67	9.3	0	2	315	0.00	30.077 
10:05	18.4	18.4	18.4	66	9.0	1	3	315	0.00	30.077 
10:10	18.6	18.6	18.6	65	8.8	0	2	315	0.00	30.077 
10:15	18.9	18.9	18.9	65	9.1	0	2	315	0.00	30.071 
10:20	19.1	19.1	19.1	65	9.3	0	2	315	0.00	30.071 
10:25	19.1	19.1	19.1	64	9.0	1	2	315	0.00	30.071 
10:30	19.2	19.2	19.2	64	9.0	0	2	315	0.00	30.074 
10:35	19.4	19.4	19.4	64	9.2	1	2	315	0.00	30.074 
10:40	19.9	19.9	19.9	63	9.4	0	2	315	0.00	30.074 
10:45	20.0	20.0	20.0	63	9.5	0	2	315	0.00	30.081 
10:50	20.3	20.3	20.3	62	9.4	0	2	315	0.00	30.081 
10:55	20.3	20.3	20.3	62	9.4	1	3	315	0.00	30.081 
11:00	20.5	20.5	20.5	62	9.6	0	2	315	0.00	30.081 
11:05	20.6	20.6	20.6	62	9.7	1	3	315	0.00	30.081 
11:10	20.6	20.6	20.6	62	9.7	1	2	315	0.00	30.081 
11:15	20.6	20.6	20.6	62	9.7	1	3	315	0.00	30.091 
11:20	20.8	20.8	20.8	61	9.5	2	3	315	0.00	30.091 
11:25	20.6	20.6	20.6	61	9.3	1	3	0	0.00	30.091 
11:30	21.0	21.0	21.0	62	10.1	1	3	0	0.00	30.096 
11:35	21.4	21.4	21.4	62	10.4	1	2	0	0.00	30.096 
11:40	21.8	21.8	21.8	62	10.8	1	3	338	0.00	30.096 
11:45	21.8	21.8	21.8	61	10.4	1	5	338	0.00	30.092 
11:50	21.8	21.8	21.8	61	10.4	1	3	338	0.00	30.092 
11:55	21.9	21.9	21.9	61	10.5	1	3	292	0.00	30.092 
12:00	22.1	22.1	22.1	62	11.1	1	2	292	0.00	30.088 
12:05	22.4	22.4	22.4	61	11.0	1	3	292	0.00	30.088 
12:10	22.4	22.4	22.4	61	11.0	1	4	292	0.00	30.088 
12:15	22.4	22.4	22.4	60	10.6	1	3	292	0.00	30.088 
12:20	22.4	22.4	22.4	61	11.0	1	3	292	0.00	30.088 
12:25	22.7	22.7	22.7	61	11.3	1	2	292	0.00	30.088 
12:30	23.0	23.0	23.0	62	11.9	1	3	292	0.00	30.093 
12:35	23.0	23.0	23.0	61	11.6	1	3	292	0.00	30.093 
12:40	23.0	23.0	23.0	61	11.6	1	2	270	0.00	30.093 
12:45	23.2	23.2	23.2	62	12.1	1	3	270	0.00	30.097 
12:50	23.2	23.2	23.2	62	12.1	1	3	270	0.00	30.097 
12:55	23.5	23.5	23.5	62	12.4	1	2	270	0.00	30.097 
13:00	23.6	23.6	23.6	60	11.8	1	3	270	0.00	30.091 
13:05	23.6	23.6	23.6	60	11.8	1	4	270	0.00	30.091 
13:10	23.9	23.9	23.9	61	12.4	1	4	248	0.00	30.091 
13:15	23.9	23.9	23.9	60	12.1	2	4	270	0.00	30.094 
13:20	23.8	23.8	23.8	61	12.3	2	5	270	0.00	30.094 
13:25	24.4	24.4	24.4	62	13.3	1	5	248	0.00	30.094 
13:30	24.4	24.4	24.4	61	12.9	2	5	248	0.00	30.095 
13:35	24.5	24.5	24.5	62	13.4	1	4	248	0.00	30.095 
13:40	24.8	24.8	24.8	63	14.0	1	4	270	0.00	30.095 
13:45	25.1	25.1	25.1	62	13.9	1	5	248	0.00	30.092 
13:50	25.1	25.1	25.1	61	13.6	1	4	248	0.00	30.092 
13:55	25.3	25.3	25.3	62	14.1	1	3	248	0.00	30.092 
14:00	25.1	25.1	25.1	62	13.9	1	3	248	0.00	30.085 
14:05	25.0	25.0	25.0	62	13.8	1	5	338	0.00	30.085 
14:10	25.1	25.1	25.1	62	13.9	1	4	270	0.00	30.085 
14:15	25.6	25.6	25.6	63	14.8	1	2	270	0.00	30.079 
14:20	25.6	25.6	25.6	62	14.4	1	3	270	0.00	30.079 
14:25	25.6	25.6	25.6	61	14.0	1	3	270	0.00	30.079 
14:30	25.6	25.6	25.6	61	14.0	1	3	270	0.00	30.078 
14:35	25.6	25.6	25.6	60	13.7	1	3	270	0.00	30.078 
14:40	25.7	25.7	25.7	61	14.1	1	3	270	0.00	30.078 
14:45	25.6	25.6	25.6	60	13.7	1	3	270	0.00	30.078 
14:50	25.6	25.6	25.6	61	14.0	1	3	270	0.00	30.078 
14:55	25.4	25.4	25.4	60	13.5	1	3	270	0.00	30.078 
15:00	25.1	25.1	25.1	61	13.6	1	4	248	0.00	30.079 
15:05	25.3	25.3	25.3	62	14.1	1	3	248	0.00	30.079 
15:10	25.3	25.3	25.3	61	13.8	1	3	292	0.00	30.079 
15:15	25.3	25.3	25.3	60	13.4	1	4	292	0.00	30.067 
15:20	25.7	25.7	25.7	61	14.1	1	2	248	0.00	30.067 
15:25	26.1	26.1	26.1	59	13.8	1	6	248	0.00	30.067 
15:30	26.0	26.0	26.0	59	13.7	1	6	270	0.00	30.064 
15:35	26.3	26.3	26.3	59	13.9	1	5	248	0.00	30.064 
15:40	26.4	26.4	26.4	58	13.7	1	3	248	0.00	30.064 
15:45	26.3	26.3	26.3	58	13.6	1	3	248	0.00	30.063 
15:50	26.1	26.1	26.1	58	13.4	1	3	248	0.00	30.063 
15:55	26.1	26.1	26.1	58	13.4	1	2	315	0.00	30.063 
16:00	26.0	26.0	26.0	57	12.9	2	5	270	0.00	30.072 
16:05	25.8	25.8	25.8	58	13.1	1	4	292	0.00	30.072 
16:10	25.7	25.7	25.7	57	12.6	2	4	270	0.00	30.072 
16:15	25.6	25.6	25.6	57	12.5	1	4	248	0.00	30.072 
16:20	25.4	25.4	25.4	58	12.7	0	3	248	0.00	30.072 
16:25	25.1	25.1	25.1	58	12.4	1	3	248	0.00	30.072 
16:30	25.0	25.0	25.0	58	12.3	1	5	248	0.00	30.083 
16:35	25.0	25.0	25.0	60	13.1	0	2	248	0.00	30.083 
16:40	25.0	25.0	25.0	61	13.5	0	1	248	0.00	30.083 
16:45	25.0	25.0	25.0	61	13.5	1	4	292	0.00	30.084 
16:50	24.8	24.8	24.8	61	13.3	1	4	292	0.00	30.084 
16:55	24.7	24.7	24.7	62	13.6	0	3	270	0.00	30.084 
17:00	24.5	24.5	24.5	62	13.4	1	4	248	0.00	30.092 
17:05	24.2	24.2	24.2	62	13.1	0	2	248	0.00	30.092 
17:10	24.1	24.1	24.1	62	13.0	0	5	248	0.00	30.092 
17:15	23.8	23.8	23.8	62	12.7	0	3	248	0.00	30.095 
17:20	23.6	23.6	23.6	62	12.5	0	2	270	0.00	30.095 
17:25	23.3	23.3	23.3	62	12.2	1	2	270	0.00	30.095 
17:30	23.0	23.0	23.0	63	12.3	0	2	270	0.00	30.089 
17:35	22.9	22.9	22.9	63	12.2	0	1	270	0.00	30.089 
17:40	22.7	22.7	22.7	63	12.0	0	2	270	0.00	30.089 
17:45	22.5	22.5	22.5	64	12.2	0	1	270	0.00	30.085 
17:50	22.2	22.2	22.2	64	11.9	0	1	270	0.00	30.085 
17:55	22.1	22.1	22.1	65	12.2	0	1	270	0.00	30.085 
18:00	22.1	22.1	22.1	66	12.5	0	1	270	0.00	30.087 
18:05	21.8	21.8	21.8	67	12.6	0	1	270	0.00	30.087 
18:10	21.6	21.6	21.6	67	12.4	0	2	270	0.00	30.087 
18:15	21.4	21.4	21.4	67	12.2	0	2	270	0.00	30.092 
18:20	21.1	21.1	21.1	67	11.9	0	3	270	0.00	30.092 
18:25	21.0	21.0	21.0	67	11.8	0	1	270	0.00	30.092 
18:30	20.6	20.6	20.6	67	11.4	0	2	270	0.00	30.090 
18:35	20.5	20.5	20.5	67	11.3	0	1	270	0.00	30.090 
18:40	20.5	20.5	20.5	67	11.3	0	2	270	0.00	30.090 
18:45	20.2	20.2	20.2	67	11.0	0	3	270	0.00	30.097 
18:50	20.0	20.0	20.0	66	10.5	0	1	270	0.00	30.097 
18:55	20.0	20.0	20.0	66	10.5	0	1	270	0.00	30.097 
19:00	19.9	19.9	19.9	66	10.4	0	1	270	0.00	30.095 
19:05	19.7	19.7	19.7	66	10.2	0	1	270	0.00	30.095 
19:10	19.5	19.5	19.5	66	10.0	0	1	270	0.00	30.095 
19:15	19.4	19.4	19.4	67	10.3	0	1	270	0.00	30.091 
19:20	19.2	19.2	19.2	67	10.1	0	0	---	0.00	30.091 
19:25	19.1	19.1	19.1	67	10.0	0	0	---	0.00	30.091 
19:30	18.9	18.9	18.9	68	10.1	0	0	---	0.00	30.089 
19:35	18.8	18.8	18.8	68	10.0	0	1	270	0.00	30.089 
19:40	18.6	18.6	18.6	68	9.8	0	0	---	0.00	30.089 
19:45	18.4	18.4	18.4	68	9.6	0	0	---	0.00	30.087 
19:50	18.3	18.3	18.3	69	9.9	0	0	---	0.00	30.087 
19:55	18.1	18.1	18.1	69	9.7	0	0	---	0.00	30.087 
20:00	18.0	18.0	18.0	69	9.6	0	0	---	0.00	30.085 
20:05	17.8	17.8	17.8	69	9.4	0	0	---	0.00	30.085 
20:10	17.7	17.7	17.7	69	9.3	0	0	---	0.00	30.085 
20:15	17.5	17.5	17.5	70	9.4	0	0	---	0.00	30.084 
20:20	17.2	17.2	17.2	70	9.1	0	0	---	0.00	30.084 
20:25	17.0	17.0	17.0	70	8.9	0	0	---	0.00	30.084 
20:30	16.9	16.9	16.9	71	9.2	0	0	---	0.00	30.085 
20:35	16.9	16.9	16.9	71	9.2	0	0	---	0.00	30.085 
20:40	16.7	16.7	16.7	71	9.0	0	0	---	0.00	30.085 
20:45	16.5	16.5	16.5	72	9.1	0	0	---	0.00	30.084 
20:50	16.5	16.5	16.5	72	9.1	0	0	---	0.00	30.084 
20:55	16.4	16.4	16.4	72	9.0	0	0	---	0.00	30.084 
21:00	16.2	16.2	16.2	72	8.8	0	0	---	0.00	30.083 
21:05	16.1	16.1	16.1	73	9.0	0	0	---	0.00	30.083 
21:10	15.9	15.9	15.9	73	8.8	0	0	---	0.00	30.083 
21:15	15.7	15.7	15.7	73	8.6	0	0	---	0.00	30.084 
21:20	15.6	15.6	15.6	73	8.5	0	0	---	0.00	30.084 
21:25	15.6	15.6	15.6	74	8.8	0	0	---	0.00	30.084 
21:30	15.4	15.4	15.4	74	8.6	0	0	---	0.00	30.084 
21:35	15.4	15.4	15.4	74	8.6	0	0	---	0.00	30.084 
21:40	15.4	15.4	15.4	75	8.9	0	0	---	0.00	30.084 
21:45	15.4	15.4	15.4	76	9.2	0	0	---	0.00	30.086 
21:50	15.4	15.4	15.4	76	9.2	0	0	---	0.00	30.086 
21:55	15.4	15.4	15.4	76	9.2	0	0	---	0.00	30.086 
22:00	15.4	15.4	15.4	76	9.2	0	0	---	0.00	30.085 
22:05	15.4	15.4	15.4	76	9.2	0	1	270	0.00	30.085 
22:10	15.4	15.4	15.4	76	9.2	0	1	270	0.00	30.085 
22:15	15.4	15.4	15.4	76	9.2	0	0	---	0.00	30.082 
22:20	15.4	15.4	15.4	75	8.9	0	1	270	0.00	30.082 
22:25	15.4	15.4	15.4	75	8.9	0	0	---	0.00	30.082 
22:30	15.4	15.4	15.4	75	8.9	0	0	---	0.00	30.081 
22:35	15.4	15.4	15.4	75	8.9	0	0	---	0.00	30.081 
22:40	15.6	15.6	15.6	75	9.1	0	1	270	0.00	30.081 
22:45	15.6	15.6	15.6	74	8.8	0	0	---	0.00	30.080 
22:50	15.6	15.6	15.6	74	8.8	0	0	---	0.00	30.080 
22:55	15.6	15.6	15.6	74	8.8	0	0	---	0.00	30.080 
23:00	15.7	15.7	15.7	74	8.9	0	1	270	0.00	30.077 
23:05	15.9	15.9	15.9	73	8.8	0	1	270	0.00	30.077 
23:10	15.9	15.9	15.9	73	8.8	0	0	---	0.00	30.077 
23:15	16.1	16.1	16.1	73	9.0	0	1	270	0.00	30.065 
23:20	16.1	16.1	16.1	73	9.0	0	0	---	0.00	30.065 
23:25	16.1	16.1	16.1	73	9.0	0	0	---	0.00	30.065 
23:30	16.1	16.1	16.1	73	9.0	0	0	---	0.00	30.063 
23:35	16.1	16.1	16.1	73	9.0	0	1	270	0.00	30.063 
23:40	15.9	15.9	15.9	73	8.8	0	0	---	0.00	30.063 
23:45	15.9	15.9	15.9	73	8.8	0	0	---	0.00	30.055 
23:50	15.9	15.9	15.9	73	8.8	0	0	---	0.00	30.055 
23:55	15.7	15.7	15.7	73	8.6	0	1	270	0.00	30.055 

CoCoRaHS
IN-AL-39
A2 Web Hosting
Creative Commons License
GoDaddy
search engine by freefind advanced

loaded 2018-11-15 03:07:47 • last modified 2010-11-18 10:43:29
Privacy PolicyDisclaimer
• wx.awcolley.com is powered by PmWiki v.2002016 •
• all content (unless otherwise noted) © 2018 A W Colley